Terminal Aerodrome Forecast
Issued by NWS Cleveland, OH

Home | Current Version | Previous Version | Graphics & Text | Print | Product List | Glossary On
Versions: 1 2 3 4 5 6 7 8 9 10 11 12 13 14 15 16 17 18 19 20 21 22 23 24 25 26
000
FTUS41 KCLE 290500
TAFCAK
TAF
KCAK 290525Z 2906/3006 17008KT P6SM SCT040 OVC080
      TEMPO 2906/2910 BKN040
     FM291200 16012KT P6SM SCT025 OVC040
     FM291600 19014G20KT P6SM SCT025 OVC045
     FM292200 19014G20KT P6SM -DZ SCT012 OVC025
      TEMPO 2922/3002 6SM -RA BR OVC012
     FM300200 19014G20KT 5SM -RA BR OVC012=

USA.gov is the U.S. government's official web portal to all federal, state and local government web resources and services.